Time,TemperatureF,DewpointF,PressureIn,WindDirection,WindDirectionDegrees,WindSpeedMPH,WindSpeedGustMPH,Humidity,HourlyPrecipIn,Conditions,Clouds,dailyrainin,SoftwareType,DateUTC
2013-02-05 00:02:00,21.0,20.0,-100.00,SSE,160,2.0,4.0,97,0.00,,,-99.99,,2013-02-05 05:02:00,
2013-02-05 00:12:00,21.0,20.0,-100.00,SSE,160,2.0,4.0,97,0.00,,,-99.99,,2013-02-05 05:12:00,
2013-02-05 00:22:00,21.0,20.0,-100.00,SSE,155,1.0,4.0,97,0.00,,,-99.99,,2013-02-05 05:22:00,
2013-02-05 00:32:00,21.0,20.0,-100.00,SSW,195,2.0,3.0,97,0.00,,,-99.99,,2013-02-05 05:32:00,
2013-02-05 00:42:00,21.0,20.0,-100.00,SSW,195,2.0,3.0,97,0.00,,,-99.99,,2013-02-05 05:42:00,
2013-02-05 00:52:00,20.0,20.0,-100.00,South,170,1.0,3.0,97,0.00,,,-99.99,,2013-02-05 05:52:00,
2013-02-05 01:02:00,20.0,20.0,-100.00,South,170,1.0,2.0,97,0.00,,,-99.99,,2013-02-05 06:02:00,
2013-02-05 01:11:00,20.0,20.0,-100.00,SSE,150,0.0,2.0,97,0.00,,,-99.99,,2013-02-05 06:11:00,
2013-02-05 01:22:00,20.0,19.0,-100.00,SSE,150,0.0,1.0,97,0.00,,,-99.99,,2013-02-05 06:22:00,
2013-02-05 01:32:00,20.0,19.0,-100.00,SE,135,1.0,2.0,97,0.00,,,-99.99,,2013-02-05 06:32:00,
2013-02-05 01:42:00,20.0,20.0,-100.00,East,100,2.0,4.0,97,0.00,,,-99.99,,2013-02-05 06:42:00,
2013-02-05 01:51:00,20.0,19.0,-100.00,ESE,115,1.0,4.0,97,0.00,,,-99.99,,2013-02-05 06:51:00,
2013-02-05 02:01:00,20.0,19.0,-100.00,ESE,115,1.0,4.0,97,0.00,,,-99.99,,2013-02-05 07:01:00,
2013-02-05 02:11:00,20.0,20.0,-100.00,ESE,110,1.0,4.0,97,0.00,,,-99.99,,2013-02-05 07:11:00,
2013-02-05 02:22:00,20.0,20.0,-100.00,SE,130,0.0,4.0,97,0.00,,,-99.99,,2013-02-05 07:22:00,
2013-02-05 02:32:00,20.0,20.0,-100.00,SSE,155,1.0,2.0,97,0.00,,,-99.99,,2013-02-05 07:32:00,
2013-02-05 02:42:00,20.0,20.0,-100.00,SSE,155,1.0,2.0,97,0.00,,,-99.99,,2013-02-05 07:42:00,
2013-02-05 02:52:00,20.0,20.0,-100.00,SSE,150,1.0,4.0,97,0.00,,,-99.99,,2013-02-05 07:52:00,
2013-02-05 03:01:00,20.0,19.0,-100.00,South,170,1.0,4.0,97,0.00,,,-99.99,,2013-02-05 08:01:00,
2013-02-05 03:11:00,20.0,19.0,-100.00,South,170,1.0,4.0,97,0.00,,,-99.99,,2013-02-05 08:11:00,
2013-02-05 03:22:00,20.0,19.0,-100.00,South,180,2.0,4.0,97,0.00,,,-99.99,,2013-02-05 08:22:00,
2013-02-05 03:32:00,20.0,19.0,-100.00,South,170,0.0,3.0,97,0.00,,,-99.99,,2013-02-05 08:32:00,
2013-02-05 03:42:00,20.0,19.0,-100.00,South,190,1.0,4.0,97,0.00,,,-99.99,,2013-02-05 08:42:00,
2013-02-05 03:52:00,20.0,19.0,-100.00,South,170,2.0,6.0,97,0.00,,,-99.99,,2013-02-05 08:52:00,
2013-02-05 04:02:00,20.0,19.0,-100.00,South,170,2.0,6.0,97,0.00,,,-99.99,,2013-02-05 09:02:00,
2013-02-05 04:11:00,20.0,19.0,-100.00,South,170,1.0,4.0,97,0.00,,,-99.99,,2013-02-05 09:11:00,
2013-02-05 04:21:00,20.0,19.0,-100.00,ESE,110,0.0,4.0,97,0.00,,,-99.99,,2013-02-05 09:21:00,
2013-02-05 04:32:00,20.0,19.0,-100.00,South,180,1.0,2.0,97,0.00,,,-99.99,,2013-02-05 09:32:00,
2013-02-05 04:42:00,20.0,19.0,-100.00,South,170,2.0,4.0,97,0.00,,,-99.99,,2013-02-05 09:42:00,
2013-02-05 04:51:00,20.0,19.0,-100.00,SSE,150,1.0,4.0,97,0.00,,,-99.99,,2013-02-05 09:51:00,
2013-02-05 05:02:00,20.0,19.0,-100.00,SE,135,0.0,4.0,97,0.00,,,-99.99,,2013-02-05 10:02:00,
2013-02-05 05:11:00,20.0,19.0,-100.00,South,180,0.0,3.0,97,0.00,,,-99.99,,2013-02-05 10:11:00,
2013-02-05 05:21:00,20.0,19.0,-100.00,South,185,0.0,5.0,97,0.00,,,-99.99,,2013-02-05 10:21:00,
2013-02-05 05:32:00,20.0,20.0,-100.00,SSE,165,0.0,2.0,97,0.00,,,-99.99,,2013-02-05 10:32:00,
2013-02-05 05:42:00,20.0,20.0,-100.00,South,180,0.0,4.0,97,0.00,,,-99.99,,2013-02-05 10:42:00,
2013-02-05 05:52:00,20.0,20.0,-100.00,South,185,0.0,2.0,97,0.00,,,-99.99,,2013-02-05 10:52:00,
2013-02-05 06:01:00,20.0,20.0,-100.00,South,185,0.0,2.0,97,0.00,,,-99.99,,2013-02-05 11:01:00,
2013-02-05 06:11:00,20.0,20.0,-100.00,South,190,1.0,3.0,97,0.00,,,-99.99,,2013-02-05 11:11:00,
2013-02-05 06:22:00,20.0,20.0,-100.00,SSW,210,4.0,6.0,97,0.00,,,-99.99,,2013-02-05 11:22:00,
2013-02-05 06:32:00,20.0,20.0,-100.00,South,185,3.0,5.0,97,0.00,,,-99.99,,2013-02-05 11:32:00,
2013-02-05 06:42:00,20.0,20.0,-100.00,South,185,1.0,5.0,97,0.00,,,-99.99,,2013-02-05 11:42:00,
2013-02-05 06:52:00,20.0,20.0,-100.00,South,185,3.0,5.0,97,0.00,,,-99.99,,2013-02-05 11:52:00,
2013-02-05 07:02:00,20.0,20.0,-100.00,SSW,210,4.0,6.0,97,0.00,,,-99.99,,2013-02-05 12:02:00,
2013-02-05 07:12:00,20.0,20.0,-100.00,SSW,195,4.0,7.0,97,0.00,,,-99.99,,2013-02-05 12:12:00,
2013-02-05 07:22:00,20.0,19.0,-100.00,South,190,4.0,6.0,97,0.00,,,-99.99,,2013-02-05 12:22:00,
2013-02-05 07:32:00,20.0,19.0,-100.00,SSW,200,4.0,7.0,97,0.00,,,-99.99,,2013-02-05 12:32:00,
2013-02-05 07:42:00,20.0,19.0,-100.00,SSW,195,2.0,7.0,97,0.00,,,-99.99,,2013-02-05 12:42:00,
2013-02-05 07:52:00,20.0,19.0,-100.00,SSW,195,4.0,7.0,97,0.00,,,-99.99,,2013-02-05 12:52:00,
2013-02-05 08:02:00,20.0,19.0,-100.00,SSW,205,6.0,8.0,97,0.00,,,-99.99,,2013-02-05 13:02:00,
2013-02-05 08:12:00,20.0,19.0,-100.00,SW,215,2.0,6.0,97,0.00,,,-99.99,,2013-02-05 13:12:00,
2013-02-05 08:22:00,20.0,19.0,-100.00,SW,220,4.0,7.0,97,0.00,,,-99.99,,2013-02-05 13:22:00,
2013-02-05 08:32:00,20.0,19.0,-100.00,SW,215,2.0,4.0,97,0.00,,,-99.99,,2013-02-05 13:32:00,
2013-02-05 08:42:00,20.0,19.0,-100.00,SW,220,5.0,7.0,97,0.00,,,-99.99,,2013-02-05 13:42:00,
2013-02-05 08:52:00,20.0,19.0,-100.00,WSW,255,3.0,6.0,97,0.00,,,-99.99,,2013-02-05 13:52:00,
2013-02-05 09:01:00,20.0,19.0,-100.00,SSW,210,2.0,6.0,97,0.00,,,-99.99,,2013-02-05 14:01:00,
2013-02-05 09:12:00,20.0,19.0,-100.00,SSW,210,2.0,6.0,97,0.00,,,-99.99,,2013-02-05 14:12:00,
2013-02-05 09:21:00,20.0,20.0,-100.00,SW,215,1.0,5.0,97,0.00,,,-99.99,,2013-02-05 14:21:00,
2013-02-05 09:32:00,20.0,20.0,-100.00,West,260,2.0,3.0,97,0.00,,,-99.99,,2013-02-05 14:32:00,
2013-02-05 09:42:00,20.0,20.0,-100.00,West,270,4.0,6.0,97,0.00,,,-99.99,,2013-02-05 14:42:00,
2013-02-05 09:52:00,21.0,20.0,-100.00,WSW,255,4.0,6.0,96,0.00,,,-99.99,,2013-02-05 14:52:00,
2013-02-05 10:02:00,21.0,20.0,-100.00,NW,310,4.0,6.0,96,0.00,,,-99.99,,2013-02-05 15:02:00,
2013-02-05 10:11:00,22.0,21.0,-100.00,NW,310,4.0,6.0,95,0.00,,,-99.99,,2013-02-05 15:11:00,
2013-02-05 10:21:00,24.0,22.0,-100.00,West,280,3.0,5.0,93,0.00,,,-99.99,,2013-02-05 15:21:00,
2013-02-05 10:32:00,24.0,21.0,-100.00,West,270,3.0,4.0,89,0.00,,,-99.99,,2013-02-05 15:32:00,
2013-02-05 10:42:00,24.0,21.0,-100.00,West,275,2.0,4.0,86,0.00,,,-99.99,,2013-02-05 15:42:00,
2013-02-05 10:52:00,25.0,21.0,-100.00,West,275,1.0,2.0,83,0.00,,,-99.99,,2013-02-05 15:52:00,
2013-02-05 11:01:00,25.0,20.0,-100.00,West,280,3.0,6.0,82,0.00,,,-99.99,,2013-02-05 16:01:00,
2013-02-05 11:11:00,24.0,19.0,-100.00,NW,305,4.0,6.0,81,0.00,,,-99.99,,2013-02-05 16:11:00,
2013-02-05 11:22:00,24.0,19.0,-100.00,WNW,300,3.0,6.0,80,0.00,,,-99.99,,2013-02-05 16:22:00,
2013-02-05 11:32:00,24.0,19.0,-100.00,WNW,300,3.0,6.0,80,0.00,,,-99.99,,2013-02-05 16:32:00,
2013-02-05 11:42:00,25.0,19.0,-100.00,NW,310,5.0,7.0,76,0.00,,,-99.99,,2013-02-05 16:42:00,
2013-02-05 11:52:00,26.0,19.0,-100.00,NNW,335,4.0,9.0,75,0.00,,,-99.99,,2013-02-05 16:52:00,
2013-02-05 12:01:00,26.0,19.0,-100.00,North,355,4.0,9.0,73,0.00,,,-99.99,,2013-02-05 17:01:00,
2013-02-05 12:12:00,27.0,19.0,-100.00,NNW,340,5.0,7.0,71,0.00,,,-99.99,,2013-02-05 17:12:00,
2013-02-05 12:22:00,27.0,19.0,-100.00,NNW,340,5.0,7.0,71,0.00,,,-99.99,,2013-02-05 17:22:00,
2013-02-05 12:32:00,28.0,18.0,-100.00,NNW,335,4.0,6.0,67,0.00,,,-99.99,,2013-02-05 17:32:00,
2013-02-05 12:42:00,28.0,18.0,-100.00,North,350,3.0,6.0,66,0.00,,,-99.99,,2013-02-05 17:42:00,
2013-02-05 12:52:00,29.0,18.0,-100.00,North,355,3.0,4.0,65,0.55,,,-99.99,,2013-02-05 17:52:00,
2013-02-05 13:02:00,28.0,17.0,-100.00,NW,320,4.0,6.0,64,0.00,,,-99.99,,2013-02-05 18:02:00,
2013-02-05 13:11:00,28.0,17.0,-100.00,NNW,335,7.0,9.0,64,0.00,,,-99.99,,2013-02-05 18:11:00,
2013-02-05 13:22:00,27.0,17.0,-100.00,NNE,30,7.0,8.0,65,0.55,,,-99.99,,2013-02-05 18:22:00,
2013-02-05 13:32:00,27.0,17.0,-100.00,NNW,340,5.0,7.0,65,0.00,,,-99.99,,2013-02-05 18:32:00,
2013-02-05 13:42:00,28.0,18.0,-100.00,North,355,1.0,6.0,64,0.55,,,-99.99,,2013-02-05 18:42:00,
2013-02-05 13:52:00,28.0,18.0,-100.00,North,355,1.0,6.0,64,0.55,,,-99.99,,2013-02-05 18:52:00,
2013-02-05 14:02:00,29.0,18.0,-100.00,NNE,20,3.0,6.0,63,0.55,,,-99.99,,2013-02-05 19:02:00,
2013-02-05 14:11:00,29.0,17.0,-100.00,NW,315,2.0,4.0,62,0.00,,,-99.99,,2013-02-05 19:11:00,
2013-02-05 14:22:00,28.0,17.0,-100.00,NNW,345,2.0,6.0,62,0.00,,,-99.99,,2013-02-05 19:22:00,
2013-02-05 14:32:00,28.0,17.0,-100.00,NNW,340,4.0,9.0,65,0.55,,,-99.99,,2013-02-05 19:32:00,
2013-02-05 14:42:00,28.0,17.0,-100.00,NNE,15,6.0,7.0,64,0.00,,,-99.99,,2013-02-05 19:42:00,
2013-02-05 14:52:00,28.0,17.0,-100.00,NNE,15,6.0,7.0,64,0.00,,,-99.99,,2013-02-05 19:52:00,
2013-02-05 15:02:00,28.0,18.0,-100.00,North,10,4.0,8.0,65,0.00,,,-99.99,,2013-02-05 20:02:00,
2013-02-05 15:11:00,28.0,17.0,-100.00,North,0,7.0,12.0,64,0.00,,,-99.99,,2013-02-05 20:11:00,
2013-02-05 15:21:00,28.0,18.0,-100.00,North,5,4.0,7.0,65,1.10,,,-99.99,,2013-02-05 20:21:00,
2013-02-05 15:32:00,28.0,18.0,-100.00,North,0,5.0,9.0,65,0.00,,,-99.99,,2013-02-05 20:32:00,
2013-02-05 15:42:00,28.0,18.0,-100.00,North,355,6.0,11.0,65,2.83,,,-99.99,,2013-02-05 20:42:00,
2013-02-05 15:52:00,28.0,18.0,-100.00,NNW,345,4.0,7.0,65,1.10,,,-99.99,,2013-02-05 20:52:00,
2013-02-05 16:02:00,28.0,19.0,-100.00,NE,40,4.0,7.0,67,0.00,,,-99.99,,2013-02-05 21:02:00,
2013-02-05 16:11:00,28.0,19.0,-100.00,NNE,25,4.0,6.0,68,0.55,,,-99.99,,2013-02-05 21:11:00,
2013-02-05 16:22:00,28.0,19.0,-100.00,NE,40,4.0,6.0,69,2.24,,,-99.99,,2013-02-05 21:22:00,
2013-02-05 16:32:00,28.0,20.0,-100.00,North,355,0.0,6.0,69,1.10,,,-99.99,,2013-02-05 21:32:00,
2013-02-05 16:42:00,29.0,20.0,-100.00,NNE,20,2.0,4.0,67,1.10,,,-99.99,,2013-02-05 21:42:00,
2013-02-05 16:52:00,28.0,18.0,-100.00,NNE,30,4.0,9.0,66,0.00,,,-99.99,,2013-02-05 21:52:00,
2013-02-05 17:01:00,27.0,18.0,-100.00,NNE,15,1.0,6.0,67,1.10,,,-99.99,,2013-02-05 22:01:00,
2013-02-05 17:11:00,27.0,18.0,-100.00,NNE,25,3.0,5.0,68,0.00,,,-99.99,,2013-02-05 22:11:00,
2013-02-05 17:22:00,27.0,18.0,-100.00,NNE,20,2.0,6.0,69,0.00,,,-99.99,,2013-02-05 22:22:00,
2013-02-05 17:32:00,27.0,18.0,-100.00,North,350,1.0,7.0,68,0.55,,,-99.99,,2013-02-05 22:32:00,
2013-02-05 17:42:00,27.0,18.0,-100.00,NNE,30,4.0,6.0,68,0.00,,,-99.99,,2013-02-05 22:42:00,
2013-02-05 17:51:00,27.0,19.0,-100.00,NE,40,1.0,7.0,70,0.00,,,-99.99,,2013-02-05 22:51:00,
2013-02-05 18:02:00,27.0,19.0,-100.00,NNE,30,0.0,3.0,72,0.00,,,-99.99,,2013-02-05 23:02:00,
2013-02-05 18:11:00,26.0,19.0,-100.00,NNE,30,0.0,4.0,73,0.00,,,-99.99,,2013-02-05 23:11:00,
2013-02-05 18:22:00,26.0,20.0,-100.00,NE,40,1.0,3.0,76,0.00,,,-99.99,,2013-02-05 23:22:00,
2013-02-05 18:32:00,26.0,20.0,-100.00,NE,45,2.0,4.0,78,0.55,,,-99.99,,2013-02-05 23:32:00,
2013-02-05 18:42:00,26.0,20.0,-100.00,NE,45,0.0,2.0,79,0.00,,,-99.99,,2013-02-05 23:42:00,
2013-02-05 18:52:00,26.0,21.0,-100.00,NNE,25,1.0,2.0,80,0.00,,,-99.99,,2013-02-05 23:52:00,
2013-02-05 19:02:00,26.0,20.0,-100.00,NNE,15,0.0,2.0,80,0.00,,,-99.99,,2013-02-06 00:02:00,
2013-02-05 19:12:00,25.0,20.0,-100.00,North,350,1.0,1.0,81,0.00,,,-99.99,,2013-02-06 00:12:00,
2013-02-05 19:22:00,25.0,21.0,-100.00,NNW,345,0.0,1.0,81,0.00,,,-99.99,,2013-02-06 00:22:00,
2013-02-05 19:32:00,25.0,21.0,-100.00,NW,320,1.0,4.0,82,0.00,,,-99.99,,2013-02-06 00:32:00,
2013-02-05 19:42:00,26.0,21.0,-100.00,NW,310,4.0,5.0,82,0.00,,,-99.99,,2013-02-06 00:42:00,
2013-02-05 19:52:00,26.0,21.0,-100.00,NNW,340,2.0,5.0,82,0.00,,,-99.99,,2013-02-06 00:52:00,
2013-02-05 20:02:00,26.0,21.0,-100.00,NNW,345,2.0,7.0,81,0.00,,,-99.99,,2013-02-06 01:02:00,
2013-02-05 20:12:00,26.0,20.0,-100.00,North,355,2.0,4.0,77,0.00,,,-99.99,,2013-02-06 01:12:00,
2013-02-05 20:22:00,26.0,19.0,-100.00,North,0,3.0,4.0,75,0.00,,,-99.99,,2013-02-06 01:22:00,
2013-02-05 20:32:00,26.0,18.0,-100.00,NNE,15,5.0,12.0,69,0.00,,,-99.99,,2013-02-06 01:32:00,
2013-02-05 20:42:00,26.0,17.0,-100.00,NNE,20,9.0,18.0,68,0.00,,,-99.99,,2013-02-06 01:42:00,
2013-02-05 20:52:00,26.0,17.0,-100.00,NNE,25,7.0,12.0,69,0.00,,,-99.99,,2013-02-06 01:52:00,
2013-02-05 21:02:00,26.0,19.0,-100.00,NNE,30,6.0,11.0,73,0.00,,,-99.99,,2013-02-06 02:02:00,
2013-02-05 21:11:00,25.0,20.0,-100.00,NNE,15,6.0,11.0,80,0.00,,,-99.99,,2013-02-06 02:11:00,
2013-02-05 21:22:00,25.0,20.0,-100.00,NNE,15,6.0,11.0,80,0.00,,,-99.99,,2013-02-06 02:22:00,
2013-02-05 21:32:00,24.0,21.0,-100.00,North,0,2.0,6.0,88,0.00,,,-99.99,,2013-02-06 02:32:00,
2013-02-05 21:42:00,24.0,22.0,-100.00,NNE,15,3.0,6.0,90,0.55,,,-99.99,,2013-02-06 02:42:00,
2013-02-05 21:52:00,24.0,22.0,-100.00,NNE,15,2.0,4.0,91,0.00,,,-99.99,,2013-02-06 02:52:00,
2013-02-05 22:03:00,24.0,22.0,-100.00,NNW,345,2.0,6.0,92,0.55,,,-99.99,,2013-02-06 03:03:00,
2013-02-05 22:12:00,24.0,22.0,-100.00,North,0,2.0,6.0,92,0.00,,,-99.99,,2013-02-06 03:12:00,
2013-02-05 22:22:00,24.0,22.0,-100.00,NNW,345,4.0,6.0,93,0.00,,,-99.99,,2013-02-06 03:22:00,
2013-02-05 22:32:00,23.0,22.0,-100.00,North,350,2.0,6.0,93,0.00,,,-99.99,,2013-02-06 03:32:00,
2013-02-05 22:42:00,23.0,22.0,-100.00,North,350,4.0,8.0,93,0.55,,,-99.99,,2013-02-06 03:42:00,
2013-02-05 22:52:00,23.0,22.0,-100.00,North,355,4.0,9.0,94,0.00,,,-99.99,,2013-02-06 03:52:00,
2013-02-05 23:02:00,24.0,22.0,-100.00,NNW,345,4.0,6.0,94,0.00,,,-99.99,,2013-02-06 04:02:00,
2013-02-05 23:11:00,24.0,23.0,-100.00,North,355,4.0,6.0,94,0.55,,,-99.99,,2013-02-06 04:11:00,
2013-02-05 23:22:00,24.0,23.0,-100.00,North,355,4.0,6.0,94,0.55,,,-99.99,,2013-02-06 04:22:00,
2013-02-05 23:32:00,24.0,23.0,-100.00,North,350,4.0,8.0,94,1.10,,,-99.99,,2013-02-06 04:32:00,
2013-02-05 23:42:00,24.0,23.0,-100.00,North,5,6.0,9.0,94,0.00,,,-99.99,,2013-02-06 04:42:00,
2013-02-05 23:52:00,25.0,23.0,-100.00,NNE,15,6.0,10.0,94,0.00,,,-99.99,,2013-02-06 04:52:00,